Time;durP1;ratioP1;P1;durP2;ratioP2;P2;SDS_P1;SDS_P2;PMS_P1;PMS_P2;Temp;Humidity;BMP_temperature;BMP_pressure;BME280_temperature;BME280_humidity;BME280_pressure;Samples;Min_cycle;Max_cycle;Signal;HPM_P1;HPM_P2
2022/03/24 00:00:46;;;;;;;48.42;30.40;;;6.10;99.90;;;;;;5112850;28;20042;-83
2022/03/24 00:03:31;;;;;;;45.55;30.25;;;6.10;99.90;;;;;;5091224;28;20054;-83
2022/03/24 00:06:15;;;;;;;43.30;28.35;;;6.40;99.90;;;;;;5092369;28;20093;-83
2022/03/24 00:08:59;;;;;;;48.17;29.92;;;6.10;99.90;;;;;;5090544;28;20043;-82
2022/03/24 00:11:43;;;;;;;45.80;30.35;;;6.00;99.90;;;;;;5105561;28;20063;-83
2022/03/24 00:14:27;;;;;;;;;;;6.00;99.90;;;;;;5091807;28;20169;-83
2022/03/24 00:17:12;;;;;;;46.67;30.17;;;5.90;99.90;;;;;;5093049;28;20072;-82
2022/03/24 00:19:56;;;;;;;46.00;28.42;;;5.90;99.90;;;;;;5110999;28;20532;-83
2022/03/24 00:22:41;;;;;;;55.53;30.75;;;6.50;99.90;;;;;;5112586;28;20101;-82
2022/03/24 00:25:25;;;;;;;50.40;31.42;;;5.80;99.90;;;;;;5111682;28;20046;-83
2022/03/24 00:28:10;;;;;;;42.45;29.02;;;7.10;99.90;;;;;;5110775;28;20109;-83
2022/03/24 00:30:54;;;;;;;44.13;30.70;;;5.80;99.90;;;;;;5096649;28;20070;-85
2022/03/24 00:33:38;;;;;;;;;;;5.30;99.90;;;;;;5111404;28;20082;-82
2022/03/24 00:36:23;;;;;;;47.40;32.00;;;5.60;99.90;;;;;;5111456;28;19969;-82
2022/03/24 00:39:08;;;;;;;55.80;32.22;;;6.60;99.90;;;;;;5111756;28;20071;-83
2022/03/24 00:41:52;;;;;;;51.60;34.53;;;5.60;99.90;;;;;;5112341;28;20038;-83
2022/03/24 00:44:37;;;;;;;50.97;32.50;;;5.50;99.90;;;;;;5082869;28;20039;-83
2022/03/24 00:47:21;;;;;;;58.33;33.33;;;5.50;99.90;;;;;;5113932;28;20093;-83
2022/03/24 00:50:07;;;;;;;48.35;32.72;;;5.60;99.90;;;;;;5129395;27;20069;-83
2022/03/24 00:52:52;;;;;;;53.65;34.33;;;5.50;99.90;;;;;;5115376;28;20050;-83
2022/03/24 00:55:36;;;;;;;52.70;34.80;;;5.40;99.90;;;;;;5100937;28;20047;-83
2022/03/24 00:58:21;;;;;;;;;;;5.40;99.90;;;;;;5115002;28;20506;-83
2022/03/24 01:01:07;;;;;;;53.92;35.20;;;5.30;99.90;;;;;;5100052;28;19964;-84
2022/03/24 01:03:51;;;;;;;51.08;33.25;;;5.30;99.90;;;;;;5116222;28;20042;-83
2022/03/24 01:06:36;;;;;;;53.33;34.20;;;5.30;99.90;;;;;;5115772;28;20035;-82
2022/03/24 01:09:20;;;;;;;62.42;35.53;;;5.40;99.90;;;;;;5114342;28;20132;-83
2022/03/24 01:12:05;;;;;;;;;;;5.20;99.90;;;;;;5115860;28;20058;-83
2022/03/24 01:14:49;;;;;;;58.78;36.40;;;5.20;99.90;;;;;;5115084;28;19956;-84
2022/03/24 01:17:34;;;;;;;51.00;33.00;;;5.80;99.90;;;;;;5086308;28;20078;-82
2022/03/24 01:20:19;;;;;;;59.95;35.20;;;5.10;99.90;;;;;;5115040;28;20617;-83
2022/03/24 01:23:03;;;;;;;56.42;36.00;;;5.10;99.90;;;;;;5093694;28;20498;-83
2022/03/24 01:25:48;;;;;;;;;;;5.00;99.90;;;;;;5095751;28;20071;-82
2022/03/24 01:28:33;;;;;;;55.80;35.70;;;5.00;99.90;;;;;;5094231;28;19974;-82
2022/03/24 01:31:18;;;;;;;57.67;37.42;;;5.00;99.90;;;;;;5094683;28;20408;-82
2022/03/24 01:34:02;;;;;;;55.97;35.70;;;5.00;99.90;;;;;;5093581;28;20081;-84
2022/03/24 01:36:46;;;;;;;57.92;37.97;;;4.90;99.90;;;;;;5094469;28;20552;-83
2022/03/24 01:39:31;;;;;;;59.08;37.17;;;4.90;99.90;;;;;;5112924;28;20046;-82
2022/03/24 01:42:16;;;;;;;56.97;36.92;;;4.90;99.90;;;;;;5099515;28;20489;-83
2022/03/24 01:45:02;;;;;;;58.45;38.10;;;5.30;99.90;;;;;;5114377;28;20077;-83
2022/03/24 01:47:46;;;;;;;62.60;39.45;;;4.80;99.90;;;;;;5114241;28;20149;-82
2022/03/24 01:50:30;;;;;;;65.80;40.22;;;5.40;99.90;;;;;;5107379;28;20085;-83
2022/03/24 01:53:15;;;;;;;64.88;39.63;;;5.30;99.90;;;;;;5085087;28;20501;-83
2022/03/24 01:56:00;;;;;;;70.60;39.97;;;4.70;99.90;;;;;;5079565;28;20069;-83
2022/03/24 01:58:45;;;;;;;65.57;40.17;;;4.70;99.90;;;;;;5093879;28;20399;-83
2022/03/24 02:01:36;;;;;;;64.70;38.70;;;4.70;99.90;;;;;;5094529;28;20042;-83
2022/03/24 02:04:21;;;;;;;62.42;39.95;;;4.70;99.90;;;;;;5093094;28;20079;-83
2022/03/24 02:07:06;;;;;;;65.95;41.17;;;4.70;99.90;;;;;;5094121;28;20035;-86
2022/03/24 02:09:51;;;;;;;72.53;44.00;;;5.50;99.90;;;;;;5102210;28;20061;-83
2022/03/24 02:12:35;;;;;;;66.80;38.75;;;5.30;99.90;;;;;;5099613;28;20063;-82
2022/03/24 02:15:19;;;;;;;64.72;38.50;;;4.70;99.90;;;;;;5113329;28;20494;-83
2022/03/24 02:18:03;;;;;;;;;;;4.70;99.90;;;;;;5114112;28;20086;-83
2022/03/24 02:20:47;;;;;;;70.53;40.17;;;4.60;99.90;;;;;;5113875;28;19969;-83
2022/03/24 02:23:32;;;;;;;69.78;42.60;;;4.60;99.90;;;;;;5099130;28;20042;-82
2022/03/24 02:26:17;;;;;;;68.15;41.05;;;5.00;99.90;;;;;;5112702;28;20038;-82
2022/03/24 02:29:07;;;;;;;65.55;41.58;;;4.60;99.90;;;;;;5114162;28;20100;-82
2022/03/24 02:31:52;;;;;;;68.40;40.63;;;4.50;99.90;;;;;;5114205;28;20070;-83
2022/03/24 02:34:37;;;;;;;67.07;41.10;;;4.50;99.90;;;;;;5113443;28;20035;-82
2022/03/24 02:37:24;;;;;;;66.00;42.65;;;4.50;99.90;;;;;;5112811;28;20494;-82
2022/03/24 02:40:09;;;;;;;65.43;41.60;;;4.50;99.90;;;;;;5113100;28;20093;-85
2022/03/24 02:42:53;;;;;;;72.32;41.72;;;4.50;99.90;;;;;;5112974;28;20089;-83
2022/03/24 02:45:37;;;;;;;;;;;4.40;99.90;;;;;;5127958;27;20043;-82
2022/03/24 02:48:22;;;;;;;67.68;40.95;;;5.60;99.90;;;;;;5113371;28;19939;-83
2022/03/24 02:51:06;;;;;;;63.83;39.03;;;4.30;99.90;;;;;;5093714;28;20043;-83
2022/03/24 02:53:51;;;;;;;66.35;41.53;;;4.30;99.90;;;;;;5078483;28;20396;-83
2022/03/24 02:56:36;;;;;;;67.65;42.42;;;4.30;99.90;;;;;;5106784;28;20043;-83
2022/03/24 02:59:21;;;;;;;65.28;39.55;;;4.30;99.90;;;;;;5092079;28;20078;-83
2022/03/24 03:02:12;;;;;;;69.55;42.30;;;4.30;99.90;;;;;;5093336;28;20486;-82
2022/03/24 03:04:57;;;;;;;71.30;42.03;;;4.50;99.90;;;;;;5107838;28;20508;-83
2022/03/24 03:07:41;;;;;;;;;;;4.50;99.90;;;;;;5113121;28;20046;-82
2022/03/24 03:10:25;;;;;;;68.10;38.72;;;4.10;99.90;;;;;;5113183;28;20394;-82
2022/03/24 03:13:09;;;;;;;68.45;40.40;;;4.20;99.90;;;;;;5113650;28;20101;-82
2022/03/24 03:15:53;;;;;;;72.85;42.53;;;4.10;99.90;;;;;;5113556;28;20510;-83
2022/03/24 03:18:37;;;;;;;70.72;42.05;;;4.60;99.90;;;;;;5112796;28;20039;-82
2022/03/24 03:21:25;;;;;;;70.97;42.42;;;4.30;99.90;;;;;;5112826;28;20081;-82
2022/03/24 03:24:10;;;;;;;76.57;42.90;;;4.00;99.90;;;;;;5098183;28;20058;-82
2022/03/24 03:26:55;;;;;;;71.65;41.80;;;4.60;99.90;;;;;;5141495;27;20030;-83
2022/03/24 03:29:43;;;;;;;62.72;40.15;;;5.50;99.90;;;;;;5097620;28;20396;-82
2022/03/24 03:32:27;;;;;;;71.28;41.55;;;4.60;99.90;;;;;;5097247;28;20100;-83
2022/03/24 03:35:12;;;;;;;72.95;42.72;;;3.90;99.90;;;;;;5092821;28;20085;-82
2022/03/24 03:37:56;;;;;;;78.18;43.67;;;4.60;99.90;;;;;;5108444;28;20051;-83
2022/03/24 03:40:41;;;;;;;71.70;41.97;;;3.90;99.90;;;;;;5112803;28;20084;-83
2022/03/24 03:43:26;;;;;;;74.10;43.13;;;4.20;99.90;;;;;;5097186;28;20038;-82
2022/03/24 03:46:11;;;;;;;73.25;41.40;;;4.00;99.90;;;;;;5112947;28;20040;-83
2022/03/24 03:48:55;;;;;;;73.88;44.00;;;3.80;99.90;;;;;;5097197;28;20447;-83
2022/03/24 03:51:40;;;;;;;74.18;42.83;;;3.80;99.90;;;;;;5112475;28;20094;-83
2022/03/24 03:54:26;;;;;;;68.10;42.53;;;3.80;99.90;;;;;;5097224;28;20122;-83
2022/03/24 03:57:10;;;;;;;65.20;40.85;;;4.10;99.90;;;;;;5111844;28;20123;-83
2022/03/24 03:59:55;;;;;;;72.25;42.95;;;4.10;99.90;;;;;;5111841;28;20100;-82
2022/03/24 04:02:39;;;;;;;68.93;41.22;;;3.70;99.90;;;;;;5112240;28;20054;-82
2022/03/24 04:05:25;;;;;;;70.93;40.70;;;3.70;99.90;;;;;;5096741;28;20410;-83
2022/03/24 04:08:11;;;;;;;68.30;40.85;;;3.70;99.90;;;;;;5111593;28;20111;-82
2022/03/24 04:10:55;;;;;;;68.10;41.33;;;3.70;99.90;;;;;;5111400;28;20440;-82
2022/03/24 04:13:41;;;;;;;67.88;42.83;;;4.10;99.90;;;;;;5110887;28;20187;-82
2022/03/24 04:16:25;;;;;;;65.32;40.10;;;3.70;99.90;;;;;;5111066;28;20043;-82
2022/03/24 04:19:10;;;;;;;74.22;42.15;;;3.60;99.90;;;;;;5082822;28;20149;-82
2022/03/24 04:21:54;;;;;;;;;;;4.80;99.90;;;;;;5097245;28;20073;-83
2022/03/24 04:24:38;;;;;;;69.22;42.30;;;3.50;99.90;;;;;;5110673;28;19919;-82
2022/03/24 04:27:22;;;;;;;;;;;3.50;99.90;;;;;;5111491;28;20058;-85
2022/03/24 04:30:07;;;;;;;66.97;39.53;;;3.30;99.90;;;;;;5111508;28;19919;-82
2022/03/24 04:32:52;;;;;;;70.00;40.50;;;3.40;99.90;;;;;;5097147;28;20083;-82
2022/03/24 04:35:37;;;;;;;69.97;42.85;;;3.40;99.90;;;;;;5110895;28;20141;-82
2022/03/24 04:38:22;;;;;;;73.13;43.25;;;;;;;;;;5111184;28;20465;-84
2022/03/24 04:41:06;;;;;;;74.68;44.10;;;3.40;99.90;;;;;;5110998;28;20092;-82
2022/03/24 04:43:51;;;;;;;75.55;43.42;;;3.40;99.90;;;;;;5111575;28;20124;-82
2022/03/24 04:46:35;;;;;;;72.03;43.55;;;3.40;99.90;;;;;;5111905;28;20031;-82
2022/03/24 04:49:19;;;;;;;;;;;3.40;99.90;;;;;;5112727;28;20062;-82
2022/03/24 04:52:04;;;;;;;68.43;39.83;;;3.30;99.90;;;;;;5111305;28;20283;-82
2022/03/24 04:54:50;;;;;;;71.45;42.03;;;3.30;99.90;;;;;;5110801;28;20038;-83
2022/03/24 04:57:34;;;;;;;72.50;43.05;;;3.40;99.90;;;;;;5091221;28;20074;-83
2022/03/24 05:00:19;;;;;;;74.00;44.63;;;3.60;99.90;;;;;;5096968;28;20141;-83
2022/03/24 05:03:04;;;;;;;77.45;42.47;;;4.40;99.90;;;;;;5112118;28;20051;-82
2022/03/24 05:05:48;;;;;;;77.72;44.70;;;3.70;99.90;;;;;;5110631;28;20124;-82
2022/03/24 05:08:33;;;;;;;78.45;44.42;;;3.50;99.90;;;;;;5110428;28;20116;-83
2022/03/24 05:11:17;;;;;;;;;;;3.70;99.90;;;;;;5111341;28;20093;-84
2022/03/24 05:14:04;;;;;;;60.72;34.67;;;3.30;99.90;;;;;;5090709;28;19970;-82
2022/03/24 05:16:48;;;;;;;75.50;44.22;;;4.30;99.90;;;;;;5094618;28;20851;-83
2022/03/24 05:19:32;;;;;;;79.75;44.22;;;3.10;99.90;;;;;;5110518;28;20082;-83
2022/03/24 05:22:19;;;;;;;77.95;43.65;;;3.10;99.90;;;;;;5096573;28;20042;-82
2022/03/24 05:25:05;;;;;;;83.53;46.33;;;3.20;99.90;;;;;;5097118;28;20045;-83
2022/03/24 05:27:50;;;;;;;79.20;43.72;;;3.10;99.90;;;;;;5110337;28;20047;-83
2022/03/24 05:30:34;;;;;;;;;;;3.10;99.90;;;;;;5110738;28;20416;-83
2022/03/24 05:33:18;;;;;;;69.60;42.55;;;3.10;99.90;;;;;;5111805;28;19914;-82
2022/03/24 05:36:02;;;;;;;;;;;3.10;99.90;;;;;;5114900;28;20490;-83
2022/03/24 05:38:47;;;;;;;;;;;3.00;99.90;;;;;;5115360;28;19919;-82
2022/03/24 05:41:31;;;;;;;77.78;42.38;;;3.00;99.90;;;;;;5102310;28;19919;-85
2022/03/24 05:44:16;;;;;;;79.28;44.63;;;2.90;99.90;;;;;;5115625;28;20137;-83
2022/03/24 05:47:00;;;;;;;;;;;3.00;99.90;;;;;;5115544;28;20038;-82
2022/03/24 05:49:44;;;;;;;71.68;38.30;;;3.00;99.90;;;;;;5099639;28;19926;-81
2022/03/24 05:52:29;;;;;;;78.20;43.70;;;3.30;99.90;;;;;;5100128;28;20078;-82
2022/03/24 05:55:13;;;;;;;74.20;42.58;;;3.10;99.90;;;;;;5114526;28;20060;-82
2022/03/24 05:57:57;;;;;;;84.85;47.05;;;3.10;99.90;;;;;;5115184;28;20402;-82
2022/03/24 06:00:41;;;;;;;89.50;48.08;;;4.00;99.90;;;;;;5090754;28;20391;-81
2022/03/24 06:03:29;;;;;;;80.40;45.13;;;3.20;99.90;;;;;;5093667;28;20089;-82
2022/03/24 06:06:14;;;;;;;72.55;44.25;;;3.20;99.90;;;;;;5114376;28;20119;-82
2022/03/24 06:08:58;;;;;;;84.38;45.88;;;4.40;99.90;;;;;;5115325;28;20051;-83
2022/03/24 06:11:42;;;;;;;;;;;4.40;99.90;;;;;;5113469;28;20080;-82
2022/03/24 06:14:26;;;;;;;70.90;40.15;;;3.30;99.90;;;;;;5113525;28;19980;-82
2022/03/24 06:17:10;;;;;;;79.05;45.55;;;4.10;99.90;;;;;;5113280;28;20104;-82
2022/03/24 06:19:55;;;;;;;79.18;44.03;;;3.30;99.90;;;;;;5114238;28;20077;-83
2022/03/24 06:22:51;;;;;;;80.55;44.72;;;3.40;99.90;;;;;;5114137;28;20085;-82
2022/03/24 06:25:37;;;;;;;77.95;44.33;;;3.50;99.90;;;;;;5113369;28;20038;-84
2022/03/24 06:28:21;;;;;;;79.05;46.10;;;3.60;99.90;;;;;;5099975;28;20093;-83
2022/03/24 06:31:06;;;;;;;78.97;45.70;;;4.20;99.90;;;;;;5110112;27;20043;-83
2022/03/24 06:33:50;;;;;;;80.47;46.72;;;3.80;99.90;;;;;;5098557;28;20067;-83
2022/03/24 06:36:35;;;;;;;85.10;47.15;;;3.80;99.90;;;;;;5099128;28;20081;-83
2022/03/24 06:39:20;;;;;;;80.28;46.75;;;3.80;99.90;;;;;;5114369;28;20123;-83
2022/03/24 06:42:05;;;;;;;71.53;43.65;;;4.50;99.90;;;;;;5112992;28;20034;-82
2022/03/24 06:44:50;;;;;;;81.43;48.08;;;4.00;99.90;;;;;;5099740;28;20035;-84
2022/03/24 06:47:34;;;;;;;81.40;48.20;;;4.20;99.90;;;;;;5096081;28;20490;-83
2022/03/24 06:50:19;;;;;;;81.53;48.17;;;4.20;99.90;;;;;;5110593;28;20046;-83
2022/03/24 06:53:04;;;;;;;85.22;50.67;;;4.60;99.90;;;;;;5113005;28;20434;-83
2022/03/24 06:55:48;;;;;;;94.35;54.80;;;4.40;99.90;;;;;;5111721;28;20137;-83
2022/03/24 06:58:32;;;;;;;101.57;60.55;;;4.60;99.90;;;;;;5111819;28;20118;-83
2022/03/24 07:01:16;;;;;;;;;;;5.20;99.90;;;;;;5112857;28;20046;-83
2022/03/24 07:04:01;;;;;;;104.53;60.67;;;4.80;99.90;;;;;;5095970;28;19940;-84
2022/03/24 07:06:45;;;;;;;108.07;60.70;;;5.00;99.90;;;;;;5107507;28;20050;-83
2022/03/24 07:09:29;;;;;;;;;;;5.20;99.90;;;;;;5095391;28;20047;-84
2022/03/24 07:12:17;;;;;;;100.40;57.72;;;5.40;99.90;;;;;;5103078;28;19927;-83
2022/03/24 07:15:02;;;;;;;100.32;59.08;;;5.60;99.90;;;;;;5110644;28;20050;-83
2022/03/24 07:17:46;;;;;;;89.47;54.38;;;5.80;99.90;;;;;;5111481;28;20070;-83
2022/03/24 07:20:30;;;;;;;;;;;6.10;99.90;;;;;;5126758;27;20050;-83
2022/03/24 07:23:15;;;;;;;86.72;53.80;;;6.20;99.90;;;;;;5111892;28;19918;-83
2022/03/24 07:25:59;;;;;;;78.10;52.72;;;6.40;99.90;;;;;;5097449;28;20038;-82
2022/03/24 07:28:44;;;;;;;80.70;54.47;;;6.60;99.90;;;;;;5111753;28;20105;-84
2022/03/24 07:31:28;;;;;;;78.95;50.20;;;7.50;99.90;;;;;;5112513;28;20038;-82
2022/03/24 07:34:12;;;;;;;76.70;51.97;;;8.40;99.90;;;;;;5140848;27;20027;-82
2022/03/24 07:36:57;;;;;;;78.68;49.78;;;9.30;99.90;;;;;;5083130;28;20114;-81
2022/03/24 07:39:42;;;;;;;78.50;51.05;;;10.20;99.90;;;;;;5112013;28;20464;-82
2022/03/24 07:42:26;;;;;;;71.20;49.30;;;11.00;99.90;;;;;;5113126;28;20077;-82
2022/03/24 07:45:10;;;;;;;72.10;46.20;;;11.60;99.90;;;;;;5112470;28;20061;-83
2022/03/24 07:48:09;;;;;;;69.32;46.00;;;12.30;99.90;;;;;;5140725;27;20098;-84
2022/03/24 07:50:56;;;;;;;63.80;44.28;;;13.00;99.90;;;;;;5112597;28;20095;-84
2022/03/24 07:53:49;;;;;;;59.50;41.45;;;13.70;99.90;;;;;;5112216;28;20581;-83
2022/03/24 07:56:35;;;;;;;66.03;43.78;;;14.40;99.90;;;;;;5112298;28;20070;-84
2022/03/24 07:59:21;;;;;;;55.03;38.80;;;15.00;99.90;;;;;;5141205;27;20061;-83
2022/03/24 08:02:07;;;;;;;59.88;39.75;;;15.40;99.50;;;;;;5111999;28;20070;-83
2022/03/24 08:04:54;;;;;;;55.47;40.17;;;15.70;97.80;;;;;;5112397;28;20503;-84
2022/03/24 08:07:39;;;;;;;57.15;39.70;;;16.20;95.80;;;;;;5097819;28;20486;-83
2022/03/24 08:10:23;;;;;;;54.80;36.95;;;16.50;94.00;;;;;;5111398;28;20066;-83
2022/03/24 08:13:08;;;;;;;55.25;38.50;;;16.30;92.00;;;;;;5111307;28;20111;-83
2022/03/24 08:15:53;;;;;;;51.22;33.38;;;15.70;92.00;;;;;;5112135;28;20077;-83
2022/03/24 08:18:37;;;;;;;52.75;34.83;;;14.90;92.50;;;;;;5111783;28;20042;-83
2022/03/24 08:21:21;;;;;;;56.53;37.05;;;14.30;93.20;;;;;;5097193;28;20043;-83
2022/03/24 08:24:06;;;;;;;62.85;38.55;;;14.10;94.80;;;;;;5140380;27;20096;-83
2022/03/24 08:26:50;;;;;;;54.45;37.83;;;14.10;95.40;;;;;;5098921;28;20039;-85
2022/03/24 08:29:34;;;;;;;;;;;14.10;95.70;;;;;;5124500;28;20173;-83
2022/03/24 08:32:18;;;;;;;51.83;32.83;;;14.20;94.10;;;;;;5097214;28;19919;-83
2022/03/24 08:35:03;;;;;;;50.10;34.17;;;14.10;95.00;;;;;;5110817;28;20111;-84
2022/03/24 08:37:47;;;;;;;52.33;35.08;;;14.10;94.60;;;;;;5111527;28;20037;-83
2022/03/24 08:40:32;;;;;;;51.67;33.65;;;14.10;94.40;;;;;;5105696;28;20043;-83
2022/03/24 08:43:17;;;;;;;47.22;33.42;;;13.90;94.60;;;;;;5097807;28;20084;-83
2022/03/24 08:46:02;;;;;;;47.08;33.63;;;14.00;94.80;;;;;;5112052;28;20103;-83
2022/03/24 08:48:46;;;;;;;50.55;34.10;;;14.00;94.40;;;;;;5106890;28;20045;-83
2022/03/24 08:51:31;;;;;;;50.67;33.53;;;13.90;94.50;;;;;;5103834;28;20046;-81
2022/03/24 08:54:15;;;;;;;43.20;30.77;;;13.90;94.80;;;;;;5096496;28;20540;-83
2022/03/24 08:57:00;;;;;;;47.08;28.08;;;13.80;93.70;;;;;;5096493;28;20072;-83
2022/03/24 08:59:44;;;;;;;47.40;29.10;;;13.80;93.20;;;;;;5111919;28;20042;-83
2022/03/24 09:02:30;;;;;;;45.55;29.73;;;14.10;92.50;;;;;;5111458;28;20046;-83
2022/03/24 09:05:18;;;;;;;45.00;29.88;;;14.40;91.80;;;;;;5110799;28;20031;-83
2022/03/24 09:08:03;;;;;;;44.20;29.17;;;14.80;91.30;;;;;;5112956;28;20050;-83
2022/03/24 09:10:50;;;;;;;46.35;30.50;;;15.00;90.60;;;;;;5115028;28;20100;-83
2022/03/24 09:13:37;;;;;;;43.63;28.55;;;15.00;90.60;;;;;;5115769;28;20062;-83
2022/03/24 09:16:22;;;;;;;45.08;29.33;;;14.90;90.60;;;;;;5115153;28;20047;-83
2022/03/24 09:19:06;;;;;;;46.15;30.88;;;14.70;90.30;;;;;;5115544;28;20053;-84
2022/03/24 09:21:50;;;;;;;48.75;31.67;;;14.70;90.40;;;;;;5116108;28;20038;-83
2022/03/24 09:24:35;;;;;;;55.13;31.02;;;14.80;90.80;;;;;;5115627;28;20158;-83
2022/03/24 09:27:19;;;;;;;42.58;29.65;;;14.90;90.20;;;;;;5093650;28;20043;-83
2022/03/24 09:30:04;;;;;;;48.45;30.00;;;15.10;90.60;;;;;;5094985;28;20097;-84
2022/03/24 09:32:48;;;;;;;47.42;30.33;;;15.30;90.00;;;;;;5098006;28;20038;-83
2022/03/24 09:35:34;;;;;;;48.42;29.65;;;15.40;89.20;;;;;;5114776;28;20537;-84
2022/03/24 09:38:18;;;;;;;44.13;29.55;;;15.50;89.30;;;;;;5114155;28;20134;-83
2022/03/24 09:41:05;;;;;;;44.75;30.52;;;15.60;89.20;;;;;;5114119;28;20038;-83
2022/03/24 09:43:50;;;;;;;45.15;30.25;;;15.60;88.70;;;;;;5114691;28;20506;-83
2022/03/24 09:46:34;;;;;;;49.40;30.48;;;15.70;89.70;;;;;;5114768;28;20042;-83
2022/03/24 09:49:19;;;;;;;47.03;31.50;;;15.90;89.10;;;;;;5113910;28;20390;-83
2022/03/24 09:52:03;;;;;;;49.17;30.50;;;16.00;88.40;;;;;;5113917;28;20043;-83
2022/03/24 09:54:48;;;;;;;43.72;30.73;;;16.00;88.70;;;;;;5099940;28;20070;-82
2022/03/24 09:57:33;;;;;;;43.90;30.70;;;16.10;88.50;;;;;;5114474;28;20035;-82
2022/03/24 10:00:17;;;;;;;48.10;31.13;;;16.10;88.00;;;;;;5113707;28;20046;-82
2022/03/24 10:03:21;;;;;;;50.92;30.63;;;16.20;88.50;;;;;;5099597;28;20505;-84
2022/03/24 10:06:07;;;;;;;47.60;31.48;;;16.50;85.90;;;;;;5113676;28;20112;-83
2022/03/24 10:08:52;;;;;;;48.55;31.00;;;16.60;86.30;;;;;;5113964;28;20046;-83
2022/03/24 10:11:36;;;;;;;54.90;32.08;;;16.60;85.00;;;;;;5099788;28;20067;-83
2022/03/24 10:14:23;;;;;;;46.20;32.65;;;16.70;86.40;;;;;;5124786;27;20046;-83
2022/03/24 10:17:11;;;;;;;46.50;31.80;;;16.80;85.80;;;;;;5113536;28;20047;-84
2022/03/24 10:20:03;;;;;;;42.72;27.00;;;16.90;85.10;;;;;;5114005;28;20145;-83
2022/03/24 10:23:04;;;;;;;40.95;27.20;;;17.00;84.10;;;;;;5121801;27;20084;-83
2022/03/24 10:25:49;;;;;;;41.47;26.60;;;17.10;79.40;;;;;;5103255;27;20034;-83
2022/03/24 10:28:33;;;;;;;39.47;27.77;;;17.20;81.10;;;;;;5117122;27;20086;-83
2022/03/24 10:31:17;;;;;;;40.38;28.10;;;17.30;79.80;;;;;;5113195;28;20123;-83
2022/03/24 10:34:02;;;;;;;41.20;27.60;;;17.40;79.90;;;;;;5099252;28;20085;-83
2022/03/24 10:36:46;;;;;;;40.85;27.92;;;17.60;79.20;;;;;;5114754;28;20034;-83
2022/03/24 10:39:30;;;;;;;46.85;29.30;;;17.70;77.00;;;;;;5113233;28;20046;-83
2022/03/24 10:42:19;;;;;;;42.90;29.65;;;17.70;77.70;;;;;;5113857;28;20046;-83
2022/03/24 10:45:11;;;;;;;40.55;26.90;;;17.70;76.30;;;;;;5113436;28;20095;-83
2022/03/24 10:48:02;;;;;;;43.20;30.33;;;17.80;75.10;;;;;;5114403;28;20415;-83
2022/03/24 10:50:46;;;;;;;40.03;26.58;;;17.90;75.90;;;;;;5114329;28;20453;-83
2022/03/24 10:53:41;;;;;;;42.75;28.05;;;18.10;75.30;;;;;;5092118;28;20089;-83
2022/03/24 10:56:33;;;;;;;43.42;27.88;;;18.40;75.10;;;;;;5093175;28;20038;-83
2022/03/24 10:59:17;;;;;;;39.90;28.25;;;18.50;71.00;;;;;;5121161;27;20035;-83
2022/03/24 11:02:02;;;;;;;36.10;24.92;;;18.50;71.60;;;;;;5102471;28;20116;-83
2022/03/24 11:04:46;;;;;;;39.90;25.45;;;18.50;70.50;;;;;;5111978;28;20042;-82
2022/03/24 11:07:30;;;;;;;40.00;28.00;;;18.40;68.30;;;;;;5132158;27;20111;-83
2022/03/24 11:10:15;;;;;;;43.67;27.80;;;18.50;68.60;;;;;;5121574;27;20454;-84
2022/03/24 11:13:02;;;;;;;36.45;24.67;;;18.50;67.90;;;;;;5098619;28;20058;-83
2022/03/24 11:15:47;;;;;;;39.78;25.40;;;18.50;65.30;;;;;;5112846;28;20090;-83
2022/03/24 11:18:32;;;;;;;38.33;27.15;;;18.50;64.50;;;;;;5112148;28;20061;-83
2022/03/24 11:21:24;;;;;;;40.88;26.67;;;18.50;64.30;;;;;;5112165;28;20047;-83
2022/03/24 11:24:08;;;;;;;36.22;24.88;;;18.60;63.70;;;;;;5092424;28;20035;-84
2022/03/24 11:26:53;;;;;;;45.22;25.88;;;18.60;62.00;;;;;;5078210;28;20070;-82
2022/03/24 11:29:38;;;;;;;42.80;26.98;;;18.70;61.90;;;;;;5108290;28;20045;-82
2022/03/24 11:32:23;;;;;;;44.10;28.92;;;18.80;61.60;;;;;;5096932;28;20121;-82
2022/03/24 11:35:08;;;;;;;40.28;26.15;;;18.90;61.60;;;;;;5112290;28;20108;-82
2022/03/24 11:37:52;;;;;;;34.50;23.17;;;19.20;60.90;;;;;;5113091;28;20112;-82
2022/03/24 11:40:39;;;;;;;35.20;23.35;;;19.30;59.20;;;;;;5111776;28;20035;-84
2022/03/24 11:43:24;;;;;;;34.20;19.63;;;19.50;58.30;;;;;;5141087;27;20466;-83
2022/03/24 11:46:18;;;;;;;30.60;18.15;;;19.50;56.80;;;;;;5096398;28;20063;-83
2022/03/24 11:49:13;;;;;;;27.88;18.15;;;19.70;56.10;;;;;;5112353;28;20579;-83
2022/03/24 11:51:57;;;;;;;34.53;21.13;;;19.80;55.60;;;;;;5111929;28;20034;-83
2022/03/24 11:54:52;;;;;;;38.72;22.77;;;19.90;55.40;;;;;;5112139;28;20033;-83
2022/03/24 11:57:37;;;;;;;32.35;22.70;;;20.00;55.40;;;;;;5111546;28;20035;-83
2022/03/24 12:00:24;;;;;;;37.33;20.05;;;20.20;54.60;;;;;;5111540;28;20042;-84
2022/03/24 12:03:39;;;;;;;36.97;19.45;;;20.10;53.00;;;;;;5113059;28;20038;-83
2022/03/24 12:06:50;;;;;;;33.50;22.25;;;20.00;51.60;;;;;;5092056;28;20085;-82
2022/03/24 12:09:54;;;;;;;35.05;22.38;;;20.00;53.00;;;;;;5119941;27;20083;-83
2022/03/24 12:12:59;;;;;;;35.65;23.75;;;20.10;53.90;;;;;;5092239;28;20132;-83
2022/03/24 12:15:43;;;;;;;42.15;28.45;;;20.20;53.40;;;;;;5092313;28;20125;-83
2022/03/24 12:18:39;;;;;;;43.22;27.90;;;20.30;54.40;;;;;;5076664;28;20051;-83
2022/03/24 12:21:30;;;;;;;41.75;26.75;;;20.40;52.80;;;;;;5090848;28;20047;-83
2022/03/24 12:24:18;;;;;;;40.17;29.55;;;20.30;54.80;;;;;;5092470;28;20415;-83
2022/03/24 12:27:05;;;;;;;42.97;30.17;;;20.20;55.50;;;;;;5110008;28;20057;-83
2022/03/24 12:30:12;;;;;;;39.58;28.52;;;20.30;55.60;;;;;;5112325;28;20506;-83
2022/03/24 12:33:05;;;;;;;40.92;28.17;;;20.30;54.90;;;;;;5097259;28;20096;-83
2022/03/24 12:35:55;;;;;;;43.33;30.63;;;20.20;55.70;;;;;;5112907;28;20034;-83
2022/03/24 12:38:46;;;;;;;40.97;29.15;;;20.20;55.50;;;;;;5111151;28;20050;-84
2022/03/24 12:41:30;;;;;;;40.88;29.60;;;20.00;55.30;;;;;;5111996;28;20096;-83
2022/03/24 12:44:14;;;;;;;42.42;29.48;;;20.00;55.40;;;;;;5144742;27;20097;-85
2022/03/24 12:46:59;;;;;;;40.50;29.77;;;20.00;56.30;;;;;;5116564;28;20490;-84
2022/03/24 12:49:45;;;;;;;42.30;28.30;;;20.10;56.10;;;;;;5116055;28;20058;-84
2022/03/24 12:53:05;;;;;;;43.95;27.95;;;20.10;55.40;;;;;;5116074;28;20043;-84
2022/03/24 12:55:50;;;;;;;38.40;26.23;;;20.10;55.00;;;;;;5003339;28;20072;-84
2022/03/24 12:58:35;;;;;;;36.40;27.45;;;20.00;55.60;;;;;;5123514;27;20567;-84
2022/03/24 13:01:19;;;;;;;42.05;26.60;;;20.00;55.40;;;;;;5096037;28;20097;-84
2022/03/24 13:04:06;;;;;;;34.53;25.15;;;20.00;55.50;;;;;;5096174;28;20622;-84
2022/03/24 13:06:51;;;;;;;38.05;25.35;;;20.00;55.40;;;;;;5109605;28;20035;-84
2022/03/24 13:09:35;;;;;;;37.25;27.45;;;19.90;55.50;;;;;;5096261;28;20084;-84
2022/03/24 13:12:28;;;;;;;38.95;27.65;;;19.80;55.30;;;;;;5114997;28;20460;-84
2022/03/24 13:15:24;;;;;;;33.60;25.77;;;19.70;55.40;;;;;;5116232;28;20080;-85
2022/03/24 13:18:13;;;;;;;36.95;25.90;;;19.70;55.80;;;;;;5116168;28;20481;-84
2022/03/24 13:20:57;;;;;;;35.42;25.67;;;19.80;55.40;;;;;;5099429;28;20092;-84
2022/03/24 13:23:45;;;;;;;38.33;26.35;;;19.80;55.90;;;;;;5110015;28;20043;-84
2022/03/24 13:26:29;;;;;;;38.92;26.73;;;19.90;56.20;;;;;;5114476;28;20092;-85
2022/03/24 13:29:13;;;;;;;35.92;24.27;;;20.00;56.60;;;;;;5114550;28;20210;-85
2022/03/24 13:32:09;;;;;;;33.53;23.75;;;19.90;55.00;;;;;;5080491;28;20121;-83
2022/03/24 13:34:57;;;;;;;40.38;27.45;;;19.70;54.30;;;;;;5095428;28;20047;-84
2022/03/24 13:37:43;;;;;;;39.85;28.15;;;19.70;56.10;;;;;;5094915;28;20035;-84
2022/03/24 13:40:37;;;;;;;42.45;29.52;;;19.80;56.70;;;;;;5096055;28;20694;-85
2022/03/24 13:43:22;;;;;;;;;;;20.00;55.80;;;;;;5115293;28;20510;-84
2022/03/24 13:46:06;;;;;;;45.20;29.45;;;20.00;56.40;;;;;;5099300;28;20389;-85
2022/03/24 13:48:51;;;;;;;37.78;27.65;;;19.80;55.90;;;;;;5101483;27;20050;-84
2022/03/24 13:51:36;;;;;;;38.05;29.05;;;19.80;57.20;;;;;;5094666;28;20120;-84
2022/03/24 13:54:21;;;;;;;39.42;29.50;;;20.00;57.10;;;;;;5104791;28;20042;-84
2022/03/24 13:57:23;;;;;;;40.40;28.70;;;20.00;56.80;;;;;;5115675;28;20123;-85
2022/03/24 14:00:08;;;;;;;38.42;27.58;;;20.00;55.90;;;;;;5115493;28;20065;-84
2022/03/24 14:03:02;;;;;;;39.83;29.05;;;19.90;56.50;;;;;;5099451;28;20054;-84
2022/03/24 14:05:54;;;;;;;37.42;28.98;;;19.90;56.70;;;;;;5114194;28;20050;-83
2022/03/24 14:08:45;;;;;;;42.60;29.38;;;19.90;57.00;;;;;;5113435;28;20088;-83
2022/03/24 14:11:30;;;;;;;39.80;28.23;;;19.90;56.10;;;;;;5113875;28;20034;-84
2022/03/24 14:14:15;;;;;;;37.22;27.48;;;19.80;56.10;;;;;;5114025;28;20473;-84
2022/03/24 14:17:00;;;;;;;40.00;27.88;;;19.80;56.10;;;;;;5113997;28;20042;-84